Hong Kong, Hong Kong

11:09 AM HKT on May 26, 2015 (GMT +0800)
Hong Kong International | | Change Station
CLOSE
Current Station
Airport
Location: Hong Kong,
Elevation: 23 ft
Nearby Weather Stations

Elev 23 ft 22.31 °N, 113.92 °E | Updated 9 minutes ago

Thunderstorms and Rain
Thunderstorm Rain
81 °F
Feels Like 87 °F
N
13
Wind Variable Wind from WSW

Today
High -- | Low -- °F
--% Chance of Precip.
Yesterday
High -- | Low -- °F
Precip. -- in
5:41 AM 7:01 PM
First Quarter, 54% visible
Pressure 29.80 in
Visibility 6.2 miles
Clouds Few 500 ft
Few 1200 ft
Scattered Clouds 2000 ft
Heat Index 87 °F
Dew Point 77 °F
Humidity 89%
Rainfall 0.00 in
Snow Depth Not available.
UV 13 out of 12
Pollen Not available.
Air Quality Not available.
Flu Activity Not available.
METAR VHHH 260300Z 24011KT 9999 TSRA FEW005 FEW012CB SCT020 27/25 Q1009 TEMPO VRB20G30KT 2500 TSRA SHRA FEW008CB SCT012

More Conditions Fewer Conditions

Pressure 29.80 in
Visibility 6.2 miles
Clouds Few 500 ft
Few 1200 ft
Scattered Clouds 2000 ft
Heat Index 87 °F
Dew Point 77 °F
Humidity 89%
Rainfall 0.00 in
Snow Depth Not available.
UV 13 out of 12
Pollen Not available.
Air Quality Not available.
Flu Activity Not available.
METAR VHHH 260300Z 24011KT 9999 TSRA FEW005 FEW012CB SCT020 27/25 Q1009 TEMPO VRB20G30KT 2500 TSRA SHRA FEW008CB SCT012

More Conditions Fewer Conditions

10-Day Weather Forecast

Almanac

Astronomy

May. 26, 2015 Rise Set
Actual Time
Civil Twilight
Nautical Twilight
Astronomical Twilight
Moon
Length of Visible Light
Length of Day
Tomorrow will be .
, % of the Moon is Illuminated

Today's Extremes

Country Highs Country Lows

Community

WunderPhotos

Upload Photos

1,824,245 photos uploaded!

WunderBlogs® & News

Nearby

Air Quality

  Air Quality AQ Index Pollutant
Not available.

Snow Depth

Station Depth Elevation

Earthquake Activity

City Distance Mag. Time & Date
Minimum magnitude displayed is 2.5.

Coastal Water Temperatures

Place Temperature

Stations

Nearby Weather Stations

Station Location Temp. Windchill Dew Point Humidity Wind Precip. Elev Updated Type